sensor_id;sensor_type;location;lat;lon;timestamp;P1;durP1;ratioP1;P2;durP2;ratioP2
41881;SDS011;27562;47.524;12.404;2023-10-13T00:02:11;4.60;;;2.75;;
41881;SDS011;27562;47.524;12.404;2023-10-13T00:04:38;6.82;;;3.38;;
41881;SDS011;27562;47.524;12.404;2023-10-13T00:07:04;5.85;;;2.80;;
41881;SDS011;27562;47.524;12.404;2023-10-13T00:09:34;5.53;;;2.78;;
41881;SDS011;27562;47.524;12.404;2023-10-13T00:12:03;7.05;;;2.75;;
41881;SDS011;27562;47.524;12.404;2023-10-13T00:14:34;4.05;;;2.63;;
41881;SDS011;27562;47.524;12.404;2023-10-13T00:17:03;7.15;;;2.70;;
41881;SDS011;27562;47.524;12.404;2023-10-13T00:19:34;7.15;;;2.70;;
41881;SDS011;27562;47.524;12.404;2023-10-13T00:22:11;6.25;;;3.33;;
41881;SDS011;27562;47.524;12.404;2023-10-13T00:24:38;6.55;;;2.78;;
41881;SDS011;27562;47.524;12.404;2023-10-13T00:27:13;6.22;;;2.78;;
41881;SDS011;27562;47.524;12.404;2023-10-13T00:29:53;5.35;;;3.50;;
41881;SDS011;27562;47.524;12.404;2023-10-13T00:32:46;6.43;;;3.30;;
41881;SDS011;27562;47.524;12.404;2023-10-13T00:35:19;5.22;;;2.95;;
41881;SDS011;27562;47.524;12.404;2023-10-13T00:37:58;5.43;;;2.60;;
41881;SDS011;27562;47.524;12.404;2023-10-13T00:40:29;10.60;;;5.32;;
41881;SDS011;27562;47.524;12.404;2023-10-13T00:42:59;17.25;;;9.20;;
41881;SDS011;27562;47.524;12.404;2023-10-13T00:45:47;11.82;;;6.60;;
41881;SDS011;27562;47.524;12.404;2023-10-13T00:48:33;10.10;;;5.55;;
41881;SDS011;27562;47.524;12.404;2023-10-13T00:51:17;8.38;;;4.85;;
41881;SDS011;27562;47.524;12.404;2023-10-13T00:54:03;10.23;;;5.72;;
41881;SDS011;27562;47.524;12.404;2023-10-13T00:56:39;9.38;;;4.40;;
41881;SDS011;27562;47.524;12.404;2023-10-13T00:59:14;6.82;;;3.65;;
41881;SDS011;27562;47.524;12.404;2023-10-13T01:01:44;6.95;;;3.55;;
41881;SDS011;27562;47.524;12.404;2023-10-13T01:04:12;7.00;;;3.30;;
41881;SDS011;27562;47.524;12.404;2023-10-13T01:06:40;4.93;;;3.05;;
41881;SDS011;27562;47.524;12.404;2023-10-13T01:09:07;4.50;;;2.70;;
41881;SDS011;27562;47.524;12.404;2023-10-13T01:11:39;5.45;;;2.40;;
41881;SDS011;27562;47.524;12.404;2023-10-13T01:14:08;6.43;;;3.20;;
41881;SDS011;27562;47.524;12.404;2023-10-13T01:16:36;8.27;;;3.58;;
41881;SDS011;27562;47.524;12.404;2023-10-13T01:19:08;8.48;;;3.28;;
41881;SDS011;27562;47.524;12.404;2023-10-13T01:21:38;6.90;;;3.22;;
41881;SDS011;27562;47.524;12.404;2023-10-13T01:24:06;7.10;;;2.88;;
41881;SDS011;27562;47.524;12.404;2023-10-13T01:26:33;8.32;;;3.22;;
41881;SDS011;27562;47.524;12.404;2023-10-13T01:29:04;8.02;;;2.80;;
41881;SDS011;27562;47.524;12.404;2023-10-13T01:31:43;7.03;;;3.17;;
41881;SDS011;27562;47.524;12.404;2023-10-13T01:36:47;5.78;;;3.10;;
41881;SDS011;27562;47.524;12.404;2023-10-13T01:39:16;6.00;;;3.00;;
41881;SDS011;27562;47.524;12.404;2023-10-13T01:41:42;5.63;;;3.30;;
41881;SDS011;27562;47.524;12.404;2023-10-13T01:44:09;4.97;;;3.05;;
41881;SDS011;27562;47.524;12.404;2023-10-13T01:49:07;5.75;;;2.65;;
41881;SDS011;27562;47.524;12.404;2023-10-13T01:51:33;4.72;;;2.75;;
41881;SDS011;27562;47.524;12.404;2023-10-13T01:53:59;8.65;;;3.90;;
41881;SDS011;27562;47.524;12.404;2023-10-13T01:56:28;13.38;;;6.55;;
41881;SDS011;27562;47.524;12.404;2023-10-13T01:58:55;12.88;;;6.55;;
41881;SDS011;27562;47.524;12.404;2023-10-13T02:01:21;14.02;;;7.72;;
41881;SDS011;27562;47.524;12.404;2023-10-13T02:03:55;12.35;;;5.15;;
41881;SDS011;27562;47.524;12.404;2023-10-13T02:06:32;6.07;;;3.70;;
41881;SDS011;27562;47.524;12.404;2023-10-13T02:09:04;8.88;;;3.55;;
41881;SDS011;27562;47.524;12.404;2023-10-13T02:11:51;8.50;;;2.78;;
41881;SDS011;27562;47.524;12.404;2023-10-13T02:14:20;6.97;;;2.92;;
41881;SDS011;27562;47.524;12.404;2023-10-13T02:16:48;8.10;;;3.13;;
41881;SDS011;27562;47.524;12.404;2023-10-13T02:19:16;5.05;;;2.78;;
41881;SDS011;27562;47.524;12.404;2023-10-13T02:21:44;7.63;;;3.17;;
41881;SDS011;27562;47.524;12.404;2023-10-13T02:24:11;6.60;;;3.10;;
41881;SDS011;27562;47.524;12.404;2023-10-13T02:26:44;4.78;;;2.70;;
41881;SDS011;27562;47.524;12.404;2023-10-13T02:29:10;5.50;;;2.83;;
41881;SDS011;27562;47.524;12.404;2023-10-13T02:31:39;7.07;;;3.30;;
41881;SDS011;27562;47.524;12.404;2023-10-13T02:34:07;6.00;;;3.00;;
41881;SDS011;27562;47.524;12.404;2023-10-13T02:36:36;5.93;;;3.00;;
41881;SDS011;27562;47.524;12.404;2023-10-13T02:39:05;6.00;;;3.03;;
41881;SDS011;27562;47.524;12.404;2023-10-13T02:44:02;6.35;;;2.53;;
41881;SDS011;27562;47.524;12.404;2023-10-13T02:46:33;6.72;;;3.35;;
41881;SDS011;27562;47.524;12.404;2023-10-13T02:49:05;6.00;;;3.35;;
41881;SDS011;27562;47.524;12.404;2023-10-13T02:51:38;6.45;;;2.97;;
41881;SDS011;27562;47.524;12.404;2023-10-13T02:54:07;6.55;;;2.72;;
41881;SDS011;27562;47.524;12.404;2023-10-13T02:56:39;6.13;;;3.05;;
41881;SDS011;27562;47.524;12.404;2023-10-13T02:59:25;7.55;;;3.33;;
41881;SDS011;27562;47.524;12.404;2023-10-13T03:02:11;6.32;;;2.70;;
41881;SDS011;27562;47.524;12.404;2023-10-13T03:04:51;6.57;;;3.72;;
41881;SDS011;27562;47.524;12.404;2023-10-13T03:07:17;8.85;;;3.80;;
41881;SDS011;27562;47.524;12.404;2023-10-13T03:09:51;9.10;;;4.05;;
41881;SDS011;27562;47.524;12.404;2023-10-13T03:12:18;10.30;;;4.78;;
41881;SDS011;27562;47.524;12.404;2023-10-13T03:14:44;11.60;;;5.57;;
41881;SDS011;27562;47.524;12.404;2023-10-13T03:17:12;8.57;;;4.85;;
41881;SDS011;27562;47.524;12.404;2023-10-13T03:19:42;10.65;;;5.50;;
41881;SDS011;27562;47.524;12.404;2023-10-13T03:22:14;8.18;;;4.65;;
41881;SDS011;27562;47.524;12.404;2023-10-13T03:24:41;8.27;;;5.03;;
41881;SDS011;27562;47.524;12.404;2023-10-13T03:27:12;8.40;;;3.85;;
41881;SDS011;27562;47.524;12.404;2023-10-13T03:29:41;7.80;;;3.70;;
41881;SDS011;27562;47.524;12.404;2023-10-13T03:32:17;5.78;;;3.15;;
41881;SDS011;27562;47.524;12.404;2023-10-13T03:34:43;8.32;;;3.40;;
41881;SDS011;27562;47.524;12.404;2023-10-13T03:37:25;9.15;;;3.25;;
41881;SDS011;27562;47.524;12.404;2023-10-13T03:40:03;5.65;;;3.20;;
41881;SDS011;27562;47.524;12.404;2023-10-13T03:42:56;6.07;;;2.80;;
41881;SDS011;27562;47.524;12.404;2023-10-13T03:45:38;5.57;;;2.90;;
41881;SDS011;27562;47.524;12.404;2023-10-13T03:48:06;5.43;;;2.72;;
41881;SDS011;27562;47.524;12.404;2023-10-13T03:50:54;6.97;;;2.95;;
41881;SDS011;27562;47.524;12.404;2023-10-13T03:53:27;4.68;;;2.72;;
41881;SDS011;27562;47.524;12.404;2023-10-13T03:58:36;4.93;;;2.92;;
41881;SDS011;27562;47.524;12.404;2023-10-13T04:01:04;6.85;;;3.17;;
41881;SDS011;27562;47.524;12.404;2023-10-13T04:03:30;6.45;;;3.50;;
41881;SDS011;27562;47.524;12.404;2023-10-13T04:06:01;6.90;;;3.30;;
41881;SDS011;27562;47.524;12.404;2023-10-13T04:08:33;6.70;;;3.53;;
41881;SDS011;27562;47.524;12.404;2023-10-13T04:11:08;6.95;;;3.13;;
41881;SDS011;27562;47.524;12.404;2023-10-13T04:13:52;7.22;;;3.33;;
41881;SDS011;27562;47.524;12.404;2023-10-13T04:16:36;6.20;;;2.90;;
41881;SDS011;27562;47.524;12.404;2023-10-13T04:19:17;6.20;;;2.87;;
41881;SDS011;27562;47.524;12.404;2023-10-13T04:21:49;10.68;;;3.00;;
41881;SDS011;27562;47.524;12.404;2023-10-13T04:24:25;8.82;;;3.40;;
41881;SDS011;27562;47.524;12.404;2023-10-13T04:27:10;4.90;;;2.75;;
41881;SDS011;27562;47.524;12.404;2023-10-13T04:29:55;7.00;;;2.85;;
41881;SDS011;27562;47.524;12.404;2023-10-13T04:32:20;4.97;;;3.15;;
41881;SDS011;27562;47.524;12.404;2023-10-13T04:35:03;5.00;;;3.10;;
41881;SDS011;27562;47.524;12.404;2023-10-13T04:37:39;6.70;;;3.15;;
41881;SDS011;27562;47.524;12.404;2023-10-13T04:40:23;7.22;;;2.97;;
41881;SDS011;27562;47.524;12.404;2023-10-13T04:43:00;5.70;;;3.00;;
41881;SDS011;27562;47.524;12.404;2023-10-13T04:45:46;5.90;;;3.22;;
41881;SDS011;27562;47.524;12.404;2023-10-13T04:48:19;5.68;;;3.00;;
41881;SDS011;27562;47.524;12.404;2023-10-13T04:50:48;6.40;;;3.60;;
41881;SDS011;27562;47.524;12.404;2023-10-13T04:53:24;6.43;;;2.83;;
41881;SDS011;27562;47.524;12.404;2023-10-13T04:56:12;6.28;;;3.53;;
41881;SDS011;27562;47.524;12.404;2023-10-13T04:59:01;8.13;;;4.32;;
41881;SDS011;27562;47.524;12.404;2023-10-13T05:01:45;10.60;;;5.28;;
41881;SDS011;27562;47.524;12.404;2023-10-13T05:04:46;19.98;;;13.75;;
41881;SDS011;27562;47.524;12.404;2023-10-13T05:07:30;20.67;;;13.68;;
41881;SDS011;27562;47.524;12.404;2023-10-13T05:10:15;10.60;;;6.07;;
41881;SDS011;27562;47.524;12.404;2023-10-13T05:12:59;5.75;;;3.67;;
41881;SDS011;27562;47.524;12.404;2023-10-13T05:15:44;9.05;;;3.42;;
41881;SDS011;27562;47.524;12.404;2023-10-13T05:18:30;8.60;;;3.65;;
41881;SDS011;27562;47.524;12.404;2023-10-13T05:21:14;6.10;;;3.10;;
41881;SDS011;27562;47.524;12.404;2023-10-13T05:23:58;5.43;;;3.30;;
41881;SDS011;27562;47.524;12.404;2023-10-13T05:26:42;5.65;;;3.10;;
41881;SDS011;27562;47.524;12.404;2023-10-13T05:29:26;10.73;;;5.40;;
41881;SDS011;27562;47.524;12.404;2023-10-13T05:32:10;21.00;;;9.10;;
41881;SDS011;27562;47.524;12.404;2023-10-13T05:34:54;29.17;;;14.05;;
41881;SDS011;27562;47.524;12.404;2023-10-13T05:37:43;27.45;;;13.70;;
41881;SDS011;27562;47.524;12.404;2023-10-13T05:40:27;26.08;;;12.35;;
41881;SDS011;27562;47.524;12.404;2023-10-13T05:43:12;27.95;;;12.75;;
41881;SDS011;27562;47.524;12.404;2023-10-13T05:46:00;29.48;;;14.50;;
41881;SDS011;27562;47.524;12.404;2023-10-13T05:48:47;24.13;;;11.80;;
41881;SDS011;27562;47.524;12.404;2023-10-13T05:51:25;20.20;;;9.30;;
41881;SDS011;27562;47.524;12.404;2023-10-13T05:54:17;14.00;;;7.75;;
41881;SDS011;27562;47.524;12.404;2023-10-13T05:56:43;13.90;;;7.47;;
41881;SDS011;27562;47.524;12.404;2023-10-13T05:59:37;15.02;;;6.03;;
41881;SDS011;27562;47.524;12.404;2023-10-13T06:02:22;11.30;;;5.70;;
41881;SDS011;27562;47.524;12.404;2023-10-13T06:05:08;10.13;;;5.03;;
41881;SDS011;27562;47.524;12.404;2023-10-13T06:07:53;11.30;;;4.95;;
41881;SDS011;27562;47.524;12.404;2023-10-13T06:10:37;9.27;;;4.70;;
41881;SDS011;27562;47.524;12.404;2023-10-13T06:13:22;8.93;;;3.65;;
41881;SDS011;27562;47.524;12.404;2023-10-13T06:16:07;7.57;;;3.65;;
41881;SDS011;27562;47.524;12.404;2023-10-13T06:18:57;6.85;;;3.65;;
41881;SDS011;27562;47.524;12.404;2023-10-13T06:21:42;7.28;;;3.28;;
41881;SDS011;27562;47.524;12.404;2023-10-13T06:24:27;8.77;;;3.72;;
41881;SDS011;27562;47.524;12.404;2023-10-13T06:27:12;9.13;;;3.60;;
41881;SDS011;27562;47.524;12.404;2023-10-13T06:29:56;6.53;;;3.28;;
41881;SDS011;27562;47.524;12.404;2023-10-13T06:32:22;10.00;;;4.07;;
41881;SDS011;27562;47.524;12.404;2023-10-13T06:34:57;6.15;;;3.67;;
41881;SDS011;27562;47.524;12.404;2023-10-13T06:37:26;6.85;;;3.58;;
41881;SDS011;27562;47.524;12.404;2023-10-13T06:39:56;7.72;;;3.38;;
41881;SDS011;27562;47.524;12.404;2023-10-13T06:42:23;6.65;;;3.47;;
41881;SDS011;27562;47.524;12.404;2023-10-13T06:44:52;9.15;;;3.60;;
41881;SDS011;27562;47.524;12.404;2023-10-13T06:47:24;9.48;;;3.35;;
41881;SDS011;27562;47.524;12.404;2023-10-13T06:49:50;7.65;;;3.10;;
41881;SDS011;27562;47.524;12.404;2023-10-13T06:52:22;5.82;;;2.75;;
41881;SDS011;27562;47.524;12.404;2023-10-13T06:54:54;6.05;;;3.00;;
41881;SDS011;27562;47.524;12.404;2023-10-13T06:57:20;7.13;;;3.40;;
41881;SDS011;27562;47.524;12.404;2023-10-13T06:59:46;7.60;;;3.88;;
41881;SDS011;27562;47.524;12.404;2023-10-13T07:02:13;9.65;;;4.13;;
41881;SDS011;27562;47.524;12.404;2023-10-13T07:04:48;13.75;;;4.20;;
41881;SDS011;27562;47.524;12.404;2023-10-13T07:07:22;9.15;;;3.58;;
41881;SDS011;27562;47.524;12.404;2023-10-13T07:09:49;7.32;;;3.63;;
41881;SDS011;27562;47.524;12.404;2023-10-13T07:12:20;8.25;;;3.55;;
41881;SDS011;27562;47.524;12.404;2023-10-13T07:14:51;9.27;;;4.40;;
41881;SDS011;27562;47.524;12.404;2023-10-13T07:17:19;8.73;;;4.40;;
41881;SDS011;27562;47.524;12.404;2023-10-13T07:19:52;8.38;;;4.10;;
41881;SDS011;27562;47.524;12.404;2023-10-13T07:22:18;8.43;;;4.50;;
41881;SDS011;27562;47.524;12.404;2023-10-13T07:24:47;7.47;;;4.35;;
41881;SDS011;27562;47.524;12.404;2023-10-13T07:27:15;8.52;;;4.78;;
41881;SDS011;27562;47.524;12.404;2023-10-13T07:29:59;12.73;;;5.47;;
41881;SDS011;27562;47.524;12.404;2023-10-13T07:32:40;12.18;;;5.60;;
41881;SDS011;27562;47.524;12.404;2023-10-13T07:35:16;14.38;;;4.85;;
41881;SDS011;27562;47.524;12.404;2023-10-13T07:37:49;12.25;;;5.10;;
41881;SDS011;27562;47.524;12.404;2023-10-13T07:40:17;8.25;;;4.20;;
41881;SDS011;27562;47.524;12.404;2023-10-13T07:42:55;9.88;;;4.25;;
41881;SDS011;27562;47.524;12.404;2023-10-13T07:45:36;11.77;;;4.53;;
41881;SDS011;27562;47.524;12.404;2023-10-13T07:48:10;11.93;;;4.28;;
41881;SDS011;27562;47.524;12.404;2023-10-13T07:50:57;7.45;;;3.60;;
41881;SDS011;27562;47.524;12.404;2023-10-13T07:53:33;8.35;;;3.63;;
41881;SDS011;27562;47.524;12.404;2023-10-13T07:56:05;10.10;;;5.55;;
41881;SDS011;27562;47.524;12.404;2023-10-13T07:58:36;8.38;;;3.92;;
41881;SDS011;27562;47.524;12.404;2023-10-13T08:01:17;9.35;;;4.25;;
41881;SDS011;27562;47.524;12.404;2023-10-13T08:03:46;7.07;;;4.30;;
41881;SDS011;27562;47.524;12.404;2023-10-13T08:06:15;8.23;;;4.00;;
41881;SDS011;27562;47.524;12.404;2023-10-13T08:08:42;6.43;;;3.70;;
41881;SDS011;27562;47.524;12.404;2023-10-13T08:11:12;9.63;;;4.53;;
41881;SDS011;27562;47.524;12.404;2023-10-13T08:13:52;11.95;;;4.25;;
41881;SDS011;27562;47.524;12.404;2023-10-13T08:16:24;9.02;;;5.13;;
41881;SDS011;27562;47.524;12.404;2023-10-13T08:19:18;14.93;;;5.63;;
41881;SDS011;27562;47.524;12.404;2023-10-13T08:21:46;9.60;;;5.30;;
41881;SDS011;27562;47.524;12.404;2023-10-13T08:24:22;15.68;;;6.03;;
41881;SDS011;27562;47.524;12.404;2023-10-13T08:27:15;11.20;;;5.88;;
41881;SDS011;27562;47.524;12.404;2023-10-13T08:30:00;16.88;;;9.65;;
41881;SDS011;27562;47.524;12.404;2023-10-13T08:32:27;13.73;;;8.38;;
41881;SDS011;27562;47.524;12.404;2023-10-13T08:34:54;14.32;;;8.55;;
41881;SDS011;27562;47.524;12.404;2023-10-13T08:37:20;13.43;;;7.57;;
41881;SDS011;27562;47.524;12.404;2023-10-13T08:39:50;18.67;;;8.52;;
41881;SDS011;27562;47.524;12.404;2023-10-13T08:42:30;11.38;;;7.40;;
41881;SDS011;27562;47.524;12.404;2023-10-13T08:45:14;12.32;;;8.13;;
41881;SDS011;27562;47.524;12.404;2023-10-13T08:48:03;12.55;;;7.00;;
41881;SDS011;27562;47.524;12.404;2023-10-13T08:50:46;10.38;;;6.03;;
41881;SDS011;27562;47.524;12.404;2023-10-13T08:53:17;11.57;;;5.38;;
41881;SDS011;27562;47.524;12.404;2023-10-13T08:58:54;8.85;;;4.93;;
41881;SDS011;27562;47.524;12.404;2023-10-13T09:01:30;11.55;;;6.03;;
41881;SDS011;27562;47.524;12.404;2023-10-13T09:04:10;12.20;;;6.20;;
41881;SDS011;27562;47.524;12.404;2023-10-13T09:09:23;13.35;;;7.82;;
41881;SDS011;27562;47.524;12.404;2023-10-13T09:11:53;12.23;;;7.07;;
41881;SDS011;27562;47.524;12.404;2023-10-13T09:14:32;10.88;;;5.72;;
41881;SDS011;27562;47.524;12.404;2023-10-13T09:17:01;11.88;;;7.10;;
41881;SDS011;27562;47.524;12.404;2023-10-13T09:19:45;12.55;;;6.82;;
41881;SDS011;27562;47.524;12.404;2023-10-13T09:22:22;15.05;;;9.10;;
41881;SDS011;27562;47.524;12.404;2023-10-13T09:25:01;20.45;;;8.50;;
41881;SDS011;27562;47.524;12.404;2023-10-13T09:27:30;14.23;;;7.82;;
41881;SDS011;27562;47.524;12.404;2023-10-13T09:30:05;12.15;;;6.20;;
41881;SDS011;27562;47.524;12.404;2023-10-13T09:32:43;9.40;;;5.28;;
41881;SDS011;27562;47.524;12.404;2023-10-13T09:35:20;10.30;;;4.95;;
41881;SDS011;27562;47.524;12.404;2023-10-13T09:37:52;8.93;;;4.35;;
41881;SDS011;27562;47.524;12.404;2023-10-13T09:40:24;8.63;;;5.03;;
41881;SDS011;27562;47.524;12.404;2023-10-13T09:42:53;8.70;;;4.80;;
41881;SDS011;27562;47.524;12.404;2023-10-13T09:47:55;7.68;;;4.45;;
41881;SDS011;27562;47.524;12.404;2023-10-13T09:50:31;9.05;;;4.60;;
41881;SDS011;27562;47.524;12.404;2023-10-13T09:53:05;6.75;;;4.25;;
41881;SDS011;27562;47.524;12.404;2023-10-13T09:55:35;10.60;;;4.60;;
41881;SDS011;27562;47.524;12.404;2023-10-13T09:58:09;6.88;;;4.10;;
41881;SDS011;27562;47.524;12.404;2023-10-13T10:00:44;8.60;;;3.97;;
41881;SDS011;27562;47.524;12.404;2023-10-13T10:03:15;10.20;;;4.20;;
41881;SDS011;27562;47.524;12.404;2023-10-13T10:06:01;7.65;;;4.15;;
41881;SDS011;27562;47.524;12.404;2023-10-13T10:08:44;7.20;;;4.78;;
41881;SDS011;27562;47.524;12.404;2023-10-13T10:17:06;9.43;;;4.00;;
41881;SDS011;27562;47.524;12.404;2023-10-13T10:19:33;8.25;;;3.53;;
41881;SDS011;27562;47.524;12.404;2023-10-13T10:22:10;9.27;;;3.80;;
41881;SDS011;27562;47.524;12.404;2023-10-13T10:24:42;8.98;;;3.08;;
41881;SDS011;27562;47.524;12.404;2023-10-13T10:27:09;6.97;;;3.25;;
41881;SDS011;27562;47.524;12.404;2023-10-13T10:29:40;8.80;;;3.80;;
41881;SDS011;27562;47.524;12.404;2023-10-13T10:32:17;9.02;;;3.45;;
41881;SDS011;27562;47.524;12.404;2023-10-13T10:34:44;6.03;;;3.13;;
41881;SDS011;27562;47.524;12.404;2023-10-13T10:37:09;7.82;;;3.10;;
41881;SDS011;27562;47.524;12.404;2023-10-13T10:39:37;6.25;;;2.92;;
41881;SDS011;27562;47.524;12.404;2023-10-13T10:42:13;6.20;;;3.10;;
41881;SDS011;27562;47.524;12.404;2023-10-13T10:47:30;6.97;;;3.83;;
41881;SDS011;27562;47.524;12.404;2023-10-13T10:49:59;9.73;;;4.30;;
41881;SDS011;27562;47.524;12.404;2023-10-13T10:52:35;9.38;;;3.50;;
41881;SDS011;27562;47.524;12.404;2023-10-13T10:55:04;6.63;;;3.05;;
41881;SDS011;27562;47.524;12.404;2023-10-13T10:57:33;5.05;;;3.15;;
41881;SDS011;27562;47.524;12.404;2023-10-13T11:00:03;9.13;;;3.90;;
41881;SDS011;27562;47.524;12.404;2023-10-13T11:02:40;7.07;;;3.67;;
41881;SDS011;27562;47.524;12.404;2023-10-13T11:05:06;9.23;;;4.00;;
41881;SDS011;27562;47.524;12.404;2023-10-13T11:07:35;7.10;;;3.00;;
41881;SDS011;27562;47.524;12.404;2023-10-13T11:10:10;9.68;;;4.68;;
41881;SDS011;27562;47.524;12.404;2023-10-13T11:12:56;9.13;;;3.10;;
41881;SDS011;27562;47.524;12.404;2023-10-13T11:15:45;7.38;;;3.60;;
41881;SDS011;27562;47.524;12.404;2023-10-13T11:18:11;8.73;;;3.92;;
41881;SDS011;27562;47.524;12.404;2023-10-13T11:20:59;6.03;;;3.45;;
41881;SDS011;27562;47.524;12.404;2023-10-13T11:23:24;6.20;;;3.13;;
41881;SDS011;27562;47.524;12.404;2023-10-13T11:25:59;7.10;;;3.30;;
41881;SDS011;27562;47.524;12.404;2023-10-13T11:28:25;5.60;;;3.05;;
41881;SDS011;27562;47.524;12.404;2023-10-13T11:30:57;8.10;;;3.60;;
41881;SDS011;27562;47.524;12.404;2023-10-13T11:33:24;8.55;;;3.58;;
41881;SDS011;27562;47.524;12.404;2023-10-13T11:35:54;7.32;;;3.20;;
41881;SDS011;27562;47.524;12.404;2023-10-13T11:38:25;7.93;;;3.95;;
41881;SDS011;27562;47.524;12.404;2023-10-13T11:43:45;5.80;;;3.53;;
41881;SDS011;27562;47.524;12.404;2023-10-13T11:49:09;7.45;;;3.75;;
41881;SDS011;27562;47.524;12.404;2023-10-13T11:51:42;6.57;;;3.60;;
41881;SDS011;27562;47.524;12.404;2023-10-13T11:54:17;5.63;;;3.67;;
41881;SDS011;27562;47.524;12.404;2023-10-13T11:56:44;9.02;;;4.18;;
41881;SDS011;27562;47.524;12.404;2023-10-13T11:59:11;9.63;;;4.03;;
41881;SDS011;27562;47.524;12.404;2023-10-13T12:01:46;7.28;;;3.88;;
41881;SDS011;27562;47.524;12.404;2023-10-13T12:04:30;8.77;;;3.78;;
41881;SDS011;27562;47.524;12.404;2023-10-13T12:07:08;7.93;;;3.60;;
41881;SDS011;27562;47.524;12.404;2023-10-13T12:09:53;5.85;;;3.60;;
41881;SDS011;27562;47.524;12.404;2023-10-13T12:12:19;7.72;;;3.33;;
41881;SDS011;27562;47.524;12.404;2023-10-13T12:14:46;4.72;;;3.22;;
41881;SDS011;27562;47.524;12.404;2023-10-13T12:17:21;8.38;;;3.92;;
41881;SDS011;27562;47.524;12.404;2023-10-13T12:19:56;9.90;;;3.42;;
41881;SDS011;27562;47.524;12.404;2023-10-13T12:22:24;7.90;;;4.10;;
41881;SDS011;27562;47.524;12.404;2023-10-13T12:24:56;6.43;;;3.40;;
41881;SDS011;27562;47.524;12.404;2023-10-13T12:27:22;5.47;;;2.90;;
41881;SDS011;27562;47.524;12.404;2023-10-13T12:30:00;6.82;;;3.10;;
41881;SDS011;27562;47.524;12.404;2023-10-13T12:32:32;7.60;;;3.47;;
41881;SDS011;27562;47.524;12.404;2023-10-13T12:34:59;8.63;;;3.30;;
41881;SDS011;27562;47.524;12.404;2023-10-13T12:37:29;6.90;;;3.25;;
41881;SDS011;27562;47.524;12.404;2023-10-13T12:40:04;7.28;;;3.40;;
41881;SDS011;27562;47.524;12.404;2023-10-13T12:42:49;8.00;;;3.22;;
41881;SDS011;27562;47.524;12.404;2023-10-13T12:45:41;7.97;;;3.28;;
41881;SDS011;27562;47.524;12.404;2023-10-13T12:48:26;6.43;;;3.10;;
41881;SDS011;27562;47.524;12.404;2023-10-13T12:51:10;6.18;;;3.42;;
41881;SDS011;27562;47.524;12.404;2023-10-13T12:53:46;9.32;;;3.60;;
41881;SDS011;27562;47.524;12.404;2023-10-13T12:56:16;9.40;;;3.55;;
41881;SDS011;27562;47.524;12.404;2023-10-13T12:58:43;8.73;;;3.60;;
41881;SDS011;27562;47.524;12.404;2023-10-13T13:01:19;6.93;;;3.47;;
41881;SDS011;27562;47.524;12.404;2023-10-13T13:03:49;8.27;;;3.90;;
41881;SDS011;27562;47.524;12.404;2023-10-13T13:06:19;6.47;;;3.50;;
41881;SDS011;27562;47.524;12.404;2023-10-13T13:08:58;7.60;;;3.65;;
41881;SDS011;27562;47.524;12.404;2023-10-13T13:11:25;6.25;;;3.38;;
41881;SDS011;27562;47.524;12.404;2023-10-13T13:13:54;7.53;;;3.30;;
41881;SDS011;27562;47.524;12.404;2023-10-13T13:16:20;5.18;;;3.45;;
41881;SDS011;27562;47.524;12.404;2023-10-13T13:18:51;7.68;;;3.30;;
41881;SDS011;27562;47.524;12.404;2023-10-13T13:23:48;8.05;;;3.55;;
41881;SDS011;27562;47.524;12.404;2023-10-13T13:26:14;9.25;;;3.53;;
41881;SDS011;27562;47.524;12.404;2023-10-13T13:28:46;9.82;;;3.80;;
41881;SDS011;27562;47.524;12.404;2023-10-13T13:31:16;6.97;;;3.42;;
41881;SDS011;27562;47.524;12.404;2023-10-13T13:33:42;7.68;;;3.53;;
41881;SDS011;27562;47.524;12.404;2023-10-13T13:36:11;9.90;;;3.83;;
41881;SDS011;27562;47.524;12.404;2023-10-13T13:38:41;8.32;;;3.42;;
41881;SDS011;27562;47.524;12.404;2023-10-13T13:41:16;7.07;;;3.08;;
41881;SDS011;27562;47.524;12.404;2023-10-13T13:43:46;7.72;;;3.55;;
41881;SDS011;27562;47.524;12.404;2023-10-13T13:46:19;6.68;;;3.42;;
41881;SDS011;27562;47.524;12.404;2023-10-13T13:48:49;7.30;;;3.25;;
41881;SDS011;27562;47.524;12.404;2023-10-13T13:51:22;8.35;;;3.42;;
41881;SDS011;27562;47.524;12.404;2023-10-13T13:53:52;7.70;;;3.33;;
41881;SDS011;27562;47.524;12.404;2023-10-13T13:56:19;5.18;;;3.30;;
41881;SDS011;27562;47.524;12.404;2023-10-13T13:58:45;9.00;;;3.58;;
41881;SDS011;27562;47.524;12.404;2023-10-13T14:01:11;8.95;;;3.33;;
41881;SDS011;27562;47.524;12.404;2023-10-13T14:03:39;6.60;;;3.47;;
41881;SDS011;27562;47.524;12.404;2023-10-13T14:06:10;7.60;;;3.55;;
41881;SDS011;27562;47.524;12.404;2023-10-13T14:08:50;6.18;;;3.22;;
41881;SDS011;27562;47.524;12.404;2023-10-13T14:11:19;9.70;;;4.20;;
41881;SDS011;27562;47.524;12.404;2023-10-13T14:14:05;7.28;;;3.65;;
41881;SDS011;27562;47.524;12.404;2023-10-13T14:16:37;5.50;;;3.63;;
41881;SDS011;27562;47.524;12.404;2023-10-13T14:19:09;7.55;;;3.65;;
41881;SDS011;27562;47.524;12.404;2023-10-13T14:21:45;7.22;;;3.80;;
41881;SDS011;27562;47.524;12.404;2023-10-13T14:24:18;6.43;;;3.58;;
41881;SDS011;27562;47.524;12.404;2023-10-13T14:26:52;6.20;;;3.33;;
41881;SDS011;27562;47.524;12.404;2023-10-13T14:29:21;8.35;;;3.75;;
41881;SDS011;27562;47.524;12.404;2023-10-13T14:31:51;5.13;;;2.97;;
41881;SDS011;27562;47.524;12.404;2023-10-13T14:34:18;5.25;;;2.95;;
41881;SDS011;27562;47.524;12.404;2023-10-13T14:36:47;5.57;;;3.30;;
41881;SDS011;27562;47.524;12.404;2023-10-13T14:39:13;5.65;;;3.10;;
41881;SDS011;27562;47.524;12.404;2023-10-13T14:41:39;6.45;;;3.22;;
41881;SDS011;27562;47.524;12.404;2023-10-13T14:44:06;6.00;;;3.45;;
41881;SDS011;27562;47.524;12.404;2023-10-13T14:46:32;9.45;;;3.70;;
41881;SDS011;27562;47.524;12.404;2023-10-13T14:49:01;5.80;;;3.13;;
41881;SDS011;27562;47.524;12.404;2023-10-13T14:51:28;5.85;;;2.65;;
41881;SDS011;27562;47.524;12.404;2023-10-13T14:53:54;10.15;;;3.95;;
41881;SDS011;27562;47.524;12.404;2023-10-13T14:56:25;4.97;;;2.83;;
41881;SDS011;27562;47.524;12.404;2023-10-13T14:58:52;7.40;;;2.72;;
41881;SDS011;27562;47.524;12.404;2023-10-13T15:01:19;4.18;;;2.30;;
41881;SDS011;27562;47.524;12.404;2023-10-13T15:03:47;7.50;;;2.80;;
41881;SDS011;27562;47.524;12.404;2023-10-13T15:08:54;4.95;;;2.60;;
41881;SDS011;27562;47.524;12.404;2023-10-13T15:11:24;6.93;;;3.27;;
41881;SDS011;27562;47.524;12.404;2023-10-13T15:14:01;8.48;;;4.05;;
41881;SDS011;27562;47.524;12.404;2023-10-13T15:16:33;5.85;;;4.25;;
41881;SDS011;27562;47.524;12.404;2023-10-13T15:18:59;6.13;;;3.65;;
41881;SDS011;27562;47.524;12.404;2023-10-13T15:21:26;7.38;;;3.10;;
41881;SDS011;27562;47.524;12.404;2023-10-13T15:23:55;4.93;;;3.15;;
41881;SDS011;27562;47.524;12.404;2023-10-13T15:26:28;6.15;;;3.20;;
41881;SDS011;27562;47.524;12.404;2023-10-13T15:28:54;4.20;;;2.85;;
41881;SDS011;27562;47.524;12.404;2023-10-13T15:31:25;5.95;;;3.30;;
41881;SDS011;27562;47.524;12.404;2023-10-13T15:34:02;7.00;;;3.10;;
41881;SDS011;27562;47.524;12.404;2023-10-13T15:36:32;9.37;;;3.97;;
41881;SDS011;27562;47.524;12.404;2023-10-13T15:38:59;7.75;;;3.50;;
41881;SDS011;27562;47.524;12.404;2023-10-13T15:41:26;4.95;;;3.35;;
41881;SDS011;27562;47.524;12.404;2023-10-13T15:43:53;8.07;;;3.35;;
41881;SDS011;27562;47.524;12.404;2023-10-13T15:46:20;4.53;;;2.90;;
41881;SDS011;27562;47.524;12.404;2023-10-13T15:48:50;10.27;;;3.08;;